createdAt,value
2018-09-18T00:01:28.681Z,6.47
2018-09-18T00:03:57.331Z,5.78
2018-09-18T00:06:26.534Z,7.15
2018-09-18T00:08:54.843Z,5.92
2018-09-18T00:11:23.090Z,6.25
2018-09-18T00:13:51.315Z,6.00
2018-09-18T00:16:19.900Z,5.67
2018-09-18T00:18:48.134Z,5.20
2018-09-18T00:21:16.549Z,5.67
2018-09-18T00:23:45.190Z,5.92
2018-09-18T00:26:13.418Z,6.12
2018-09-18T00:28:41.669Z,5.35
2018-09-18T00:31:10.730Z,5.60
2018-09-18T00:33:38.946Z,5.15
2018-09-18T00:36:07.278Z,5.58
2018-09-18T00:38:35.658Z,5.22
2018-09-18T00:41:03.954Z,5.37
2018-09-18T00:43:32.190Z,4.67
2018-09-18T00:46:00.502Z,5.47
2018-09-18T00:48:28.715Z,5.40
2018-09-18T00:50:56.997Z,4.75
2018-09-18T00:53:25.775Z,4.90
2018-09-18T00:55:53.989Z,5.17
2018-09-18T00:58:22.314Z,5.85
2018-09-18T01:00:50.895Z,5.85
2018-09-18T01:03:19.277Z,5.08
2018-09-18T01:05:47.694Z,5.28
2018-09-18T01:08:16.825Z,5.00
2018-09-18T01:10:45.063Z,6.78
2018-09-18T01:13:13.276Z,4.80
2018-09-18T01:15:42.384Z,5.15
2018-09-18T01:18:10.686Z,6.08
2018-09-18T01:20:38.989Z,5.35
2018-09-18T01:23:07.618Z,4.42
2018-09-18T01:25:35.863Z,4.60
2018-09-18T01:28:04.410Z,4.42
2018-09-18T01:30:34.194Z,4.78
2018-09-18T01:33:02.447Z,4.72
2018-09-18T01:35:30.677Z,4.70
2018-09-18T01:37:59.941Z,5.10
2018-09-18T01:40:28.157Z,4.55
2018-09-18T01:42:56.470Z,4.67
2018-09-18T01:45:24.914Z,4.70
2018-09-18T01:47:53.208Z,4.83
2018-09-18T01:50:21.431Z,5.35
2018-09-18T01:52:50.010Z,4.90
2018-09-18T01:55:18.222Z,4.72
2018-09-18T01:57:46.446Z,6.20
2018-09-18T02:00:16.692Z,4.70
2018-09-18T02:02:44.985Z,4.65
2018-09-18T02:05:18.866Z,4.75
2018-09-18T02:07:47.078Z,4.60
2018-09-18T02:10:15.849Z,4.60
2018-09-18T02:12:44.730Z,4.42
2018-09-18T02:15:12.954Z,4.50
2018-09-18T02:17:41.173Z,4.70
2018-09-18T02:20:09.770Z,4.30
2018-09-18T02:22:38.002Z,4.75
2018-09-18T02:25:06.246Z,4.40
2018-09-18T02:27:34.797Z,4.50
2018-09-18T02:30:03.066Z,3.85
2018-09-18T02:32:31.448Z,4.35
2018-09-18T02:35:00.049Z,5.62
2018-09-18T02:37:28.289Z,4.95
2018-09-18T02:39:56.597Z,4.47
2018-09-18T02:42:24.890Z,4.40
2018-09-18T02:44:53.194Z,4.25
2018-09-18T02:47:21.422Z,4.00
2018-09-18T02:49:50.618Z,3.75
2018-09-18T02:52:19.345Z,4.20
2018-09-18T02:54:47.573Z,3.75
2018-09-18T02:57:15.858Z,4.10
2018-09-18T02:59:44.242Z,3.95
2018-09-18T03:02:12.554Z,4.10
2018-09-18T03:04:41.508Z,4.28
2018-09-18T03:07:09.729Z,4.20
2018-09-18T03:09:37.938Z,4.03
2018-09-18T03:12:06.594Z,3.60
2018-09-18T03:14:34.819Z,4.00
2018-09-18T03:17:03.035Z,4.78
2018-09-18T03:19:31.342Z,4.60
2018-09-18T03:21:59.589Z,4.15
2018-09-18T03:24:27.838Z,3.80
2018-09-18T03:26:57.038Z,3.83
2018-09-18T03:29:25.331Z,4.33
2018-09-18T03:31:53.633Z,4.22
2018-09-18T03:34:22.367Z,3.60
2018-09-18T03:36:51.010Z,3.85
2018-09-18T03:39:19.218Z,3.67
2018-09-18T03:41:47.720Z,3.62
2018-09-18T03:44:16.014Z,4.42
2018-09-18T03:46:44.236Z,4.12
2018-09-18T03:49:13.254Z,3.85
2018-09-18T03:51:41.545Z,3.85
2018-09-18T03:54:09.866Z,3.65
2018-09-18T03:56:38.389Z,3.58
2018-09-18T03:59:06.619Z,3.47
2018-09-18T04:01:34.984Z,3.60
2018-09-18T04:04:03.598Z,4.37
2018-09-18T04:06:31.891Z,4.12
2018-09-18T04:09:00.186Z,3.70
2018-09-18T04:11:29.079Z,3.30
2018-09-18T04:13:57.849Z,3.60
2018-09-18T04:16:26.083Z,3.40
2018-09-18T04:18:54.737Z,3.52
2018-09-18T04:21:27.185Z,3.37
2018-09-18T04:23:55.634Z,3.87
2018-09-18T04:26:23.861Z,4.03
2018-09-18T04:28:52.161Z,3.37
2018-09-18T04:31:21.234Z,3.10
2018-09-18T04:33:49.450Z,3.08
2018-09-18T04:36:17.782Z,3.37
2018-09-18T04:38:46.267Z,3.22
2018-09-18T04:41:14.573Z,3.45
2018-09-18T04:43:42.879Z,3.60
2018-09-18T04:46:12.240Z,3.35
2018-09-18T04:48:40.473Z,3.45
2018-09-18T04:51:08.823Z,3.60
2018-09-18T04:53:37.920Z,3.33
2018-09-18T04:56:06.190Z,4.05
2018-09-18T04:58:34.421Z,3.70
2018-09-18T05:01:03.124Z,4.75
2018-09-18T05:03:33.137Z,7.58
2018-09-18T05:06:01.883Z,4.60
2018-09-18T05:08:30.122Z,4.40
2018-09-18T05:10:58.506Z,5.50
2018-09-18T05:13:27.058Z,6.62
2018-09-18T05:15:55.806Z,7.83
2018-09-18T05:18:24.027Z,5.05
2018-09-18T05:20:52.939Z,10.75
2018-09-18T05:23:21.186Z,8.65
2018-09-18T05:25:49.891Z,6.83
2018-09-18T05:28:18.566Z,5.62
2018-09-18T05:30:46.799Z,8.43
2018-09-18T05:33:15.039Z,6.03
2018-09-18T05:35:43.557Z,6.80
2018-09-18T05:38:11.902Z,8.70
2018-09-18T05:40:40.201Z,8.78
2018-09-18T05:43:09.048Z,8.88
2018-09-18T05:45:37.292Z,5.72
2018-09-18T05:48:05.811Z,10.35
2018-09-18T05:50:34.309Z,6.83
2018-09-18T05:53:02.542Z,14.15
2018-09-18T05:55:30.778Z,7.50
2018-09-18T05:57:59.097Z,13.80
2018-09-18T06:00:27.415Z,9.03
2018-09-18T06:02:55.655Z,8.15
2018-09-18T06:05:24.874Z,11.12
2018-09-18T06:07:53.100Z,8.48
2018-09-18T06:10:21.566Z,10.10
2018-09-18T06:12:49.906Z,8.20
2018-09-18T06:15:18.226Z,5.28
2018-09-18T06:17:47.566Z,7.17
2018-09-18T06:20:15.842Z,5.92
2018-09-18T06:22:44.094Z,6.55
2018-09-18T06:25:12.395Z,7.97
2018-09-18T06:27:41.206Z,4.67
2018-09-18T06:30:09.471Z,8.48
2018-09-18T06:32:37.681Z,7.72
2018-09-18T06:35:05.956Z,6.95
2018-09-18T06:37:34.178Z,6.62
2018-09-18T06:40:02.561Z,5.78
2018-09-18T06:42:31.174Z,8.30
2018-09-18T06:44:59.405Z,5.33
2018-09-18T06:47:27.635Z,6.10
2018-09-18T06:49:57.455Z,7.22
2018-09-18T06:52:25.666Z,5.55
2018-09-18T06:54:53.886Z,5.60
2018-09-18T06:57:22.231Z,5.83
2018-09-18T06:59:50.458Z,5.05
2018-09-18T07:02:19.234Z,5.62
2018-09-18T07:04:47.526Z,7.78
2018-09-18T07:07:15.754Z,6.42
2018-09-18T07:09:44.671Z,4.17
2018-09-18T07:12:12.905Z,7.67
2018-09-18T07:14:41.230Z,6.50
2018-09-18T07:17:09.814Z,4.87
2018-09-18T07:19:39.205Z,7.72
2018-09-18T07:22:07.482Z,6.55
2018-09-18T07:24:35.866Z,3.90
2018-09-18T07:27:04.122Z,5.58
2018-09-18T07:29:32.452Z,4.87
2018-09-18T07:32:01.311Z,7.85
2018-09-18T07:34:29.629Z,4.92
2018-09-18T07:36:57.883Z,5.62
2018-09-18T07:39:26.567Z,7.75
2018-09-18T07:41:54.783Z,7.67
2018-09-18T07:44:22.994Z,6.37
2018-09-18T07:46:51.253Z,6.33
2018-09-18T07:49:19.479Z,7.15
2018-09-18T07:51:47.690Z,4.60
2018-09-18T07:54:17.039Z,4.85
2018-09-18T07:56:45.321Z,7.87
2018-09-18T07:59:13.573Z,5.10
2018-09-18T08:01:42.074Z,7.20
2018-09-18T08:04:12.250Z,6.85
2018-09-18T08:06:40.473Z,6.67
2018-09-18T08:09:10.713Z,7.42
2018-09-18T08:11:38.994Z,8.23
2018-09-18T08:14:07.238Z,6.45
2018-09-18T08:16:36.034Z,5.90
2018-09-18T08:19:04.366Z,8.70
2018-09-18T08:21:32.579Z,4.78
2018-09-18T08:24:01.830Z,5.12
2018-09-18T08:26:30.211Z,5.58
2018-09-18T08:28:58.438Z,5.55
2018-09-18T08:31:26.930Z,5.42
2018-09-18T08:33:55.215Z,5.20
2018-09-18T08:36:23.570Z,8.50
2018-09-18T08:38:52.271Z,5.15
2018-09-18T08:41:20.607Z,5.47
2018-09-18T08:43:48.915Z,6.20
2018-09-18T08:46:17.581Z,5.35
2018-09-18T08:48:51.165Z,4.12
2018-09-18T08:51:22.255Z,5.80
2018-09-18T08:53:50.550Z,5.67
2018-09-18T08:56:18.825Z,5.15
2018-09-18T08:58:47.182Z,6.08
2018-09-18T09:01:15.452Z,6.50
2018-09-18T09:03:43.640Z,4.10
2018-09-18T09:06:13.394Z,3.92
2018-09-18T09:08:41.676Z,3.05
2018-09-18T09:11:09.939Z,6.10
2018-09-18T09:13:38.342Z,5.03
2018-09-18T09:16:06.926Z,4.58
2018-09-18T09:18:35.208Z,6.78
2018-09-18T09:21:04.119Z,5.12
2018-09-18T09:23:32.555Z,3.85
2018-09-18T09:26:00.807Z,4.40
2018-09-18T09:28:29.374Z,6.45
2018-09-18T09:30:57.781Z,3.65
2018-09-18T09:33:26.098Z,3.77
2018-09-18T09:35:54.748Z,3.10
2018-09-18T09:38:22.994Z,4.17
2018-09-18T09:40:51.267Z,4.67
2018-09-18T09:43:20.235Z,4.33
2018-09-18T09:45:48.784Z,3.35
2018-09-18T09:48:17.008Z,3.90
2018-09-18T09:50:46.326Z,4.00
2018-09-18T09:53:14.643Z,2.42
2018-09-18T09:55:43.039Z,4.87
2018-09-18T09:58:11.672Z,4.67
2018-09-18T10:00:41.426Z,5.03
2018-09-18T10:03:09.642Z,4.95
2018-09-18T10:05:38.234Z,4.65
2018-09-18T10:08:06.909Z,3.87
2018-09-18T10:10:35.197Z,4.85
2018-09-18T10:13:03.990Z,4.15
2018-09-18T10:15:32.296Z,3.50
2018-09-18T10:18:00.551Z,4.17
2018-09-18T10:20:29.138Z,7.37
2018-09-18T10:22:57.454Z,4.05
2018-09-18T10:25:25.786Z,5.97
2018-09-18T10:27:54.390Z,3.65
2018-09-18T10:30:22.675Z,4.33
2018-09-18T10:32:50.997Z,4.87
2018-09-18T10:35:19.810Z,5.20
2018-09-18T10:37:48.122Z,4.50
2018-09-18T10:40:16.363Z,4.17
2018-09-18T10:42:44.833Z,4.00
2018-09-18T10:45:13.068Z,6.17
2018-09-18T10:47:41.312Z,17.02
2018-09-18T10:50:09.982Z,28.98
2018-09-18T10:52:38.315Z,26.17
2018-09-18T10:55:06.726Z,29.75
2018-09-18T10:57:36.568Z,29.18
2018-09-18T11:00:06.137Z,31.90
2018-09-18T11:02:34.367Z,33.78
2018-09-18T11:05:05.193Z,34.95
2018-09-18T11:07:33.515Z,33.45
2018-09-18T11:10:01.737Z,32.60
2018-09-18T11:12:30.328Z,30.92
2018-09-18T11:14:58.720Z,32.23
2018-09-18T11:17:26.838Z,32.05
2018-09-18T11:19:55.820Z,30.30
2018-09-18T11:22:24.186Z,27.65
2018-09-18T11:24:52.420Z,28.20
2018-09-18T11:27:21.240Z,30.48
2018-09-18T11:29:49.438Z,40.58
2018-09-18T11:32:17.775Z,38.30
2018-09-18T11:34:46.356Z,41.48
2018-09-18T11:37:14.658Z,49.98
2018-09-18T11:39:42.954Z,55.88
2018-09-18T11:42:11.804Z,53.83
2018-09-18T11:44:40.021Z,54.30
2018-09-18T11:47:08.267Z,52.58
2018-09-18T11:49:40.511Z,54.67
2018-09-18T11:52:08.828Z,49.13
2018-09-18T11:54:37.279Z,46.73
2018-09-18T11:57:06.125Z,43.23
2018-09-18T11:59:34.289Z,45.45
2018-09-18T12:02:02.637Z,43.17
2018-09-18T12:04:30.928Z,38.48
2018-09-18T12:07:01.962Z,40.85
2018-09-18T12:09:30.213Z,42.93
2018-09-18T12:11:58.509Z,41.50
2018-09-18T12:14:26.754Z,47.10
2018-09-18T12:16:55.047Z,34.18
2018-09-18T12:19:23.735Z,38.05
2018-09-18T12:21:52.010Z,38.92
2018-09-18T12:24:20.259Z,42.48
2018-09-18T12:26:49.289Z,37.45
2018-09-18T12:29:17.604Z,34.15
2018-09-18T12:31:45.838Z,32.35
2018-09-18T12:34:14.724Z,39.18
2018-09-18T12:36:42.987Z,34.63
2018-09-18T12:39:11.282Z,32.55
2018-09-18T12:41:41.175Z,31.40
2018-09-18T12:44:09.402Z,31.50
2018-09-18T12:46:37.674Z,30.70
2018-09-18T12:49:06.768Z,32.05
2018-09-18T12:51:34.908Z,32.25
2018-09-18T12:54:03.179Z,33.20
2018-09-18T12:56:31.429Z,30.77
2018-09-18T12:58:59.795Z,27.42
2018-09-18T13:01:27.986Z,24.25
2018-09-18T13:03:56.271Z,29.18
2018-09-18T13:06:24.662Z,27.10
2018-09-18T13:08:53.699Z,29.77
2018-09-18T13:11:23.079Z,20.95
2018-09-18T13:13:51.404Z,21.62
2018-09-18T13:16:19.706Z,23.22
2018-09-18T13:18:48.624Z,22.82
2018-09-18T13:21:16.856Z,25.72
2018-09-18T13:23:45.103Z,23.42
2018-09-18T13:26:13.451Z,23.35
2018-09-18T13:28:41.699Z,27.22
2018-09-18T13:31:10.007Z,26.10
2018-09-18T13:33:38.605Z,24.77
2018-09-18T13:36:06.853Z,21.10
2018-09-18T13:38:35.359Z,22.65
2018-09-18T13:41:03.806Z,17.75
2018-09-18T13:43:31.909Z,16.17
2018-09-18T13:46:00.229Z,15.45
2018-09-18T13:48:28.871Z,19.73
2018-09-18T13:50:57.127Z,16.25
2018-09-18T13:53:25.451Z,15.38
2018-09-18T13:55:54.370Z,15.65
2018-09-18T13:58:22.643Z,14.30
2018-09-18T14:00:50.899Z,14.03
2018-09-18T14:03:21.090Z,14.03
2018-09-18T14:05:50.116Z,13.62
2018-09-18T14:08:18.449Z,13.50
2018-09-18T14:10:47.154Z,13.83
2018-09-18T14:13:15.381Z,17.17
2018-09-18T14:15:43.686Z,26.42
2018-09-18T14:18:12.798Z,13.95
2018-09-18T14:20:41.133Z,16.02
2018-09-18T14:23:09.362Z,15.80
2018-09-18T14:25:40.398Z,21.60
2018-09-18T14:28:08.798Z,16.12
2018-09-18T14:30:37.139Z,19.07
2018-09-18T14:33:05.499Z,21.02
2018-09-18T14:35:33.769Z,17.05
2018-09-18T14:38:02.093Z,18.60
2018-09-18T14:40:30.464Z,18.27
2018-09-18T14:42:58.728Z,14.75
2018-09-18T14:45:27.061Z,16.20
2018-09-18T14:47:56.008Z,19.20
2018-09-18T14:50:24.247Z,16.40
2018-09-18T14:52:52.551Z,13.05
2018-09-18T14:55:21.153Z,16.02
2018-09-18T14:57:49.529Z,18.55
2018-09-18T15:00:17.815Z,15.30
2018-09-18T15:02:46.102Z,16.30
2018-09-18T15:05:14.346Z,11.43
2018-09-18T15:07:42.575Z,11.28
2018-09-18T15:10:11.832Z,12.88
2018-09-18T15:12:41.354Z,16.12
2018-09-18T15:15:09.586Z,17.35
2018-09-18T15:17:38.503Z,9.20
2018-09-18T15:20:06.744Z,17.12
2018-09-18T15:22:34.989Z,15.65
2018-09-18T15:25:03.537Z,12.75
2018-09-18T15:27:31.798Z,16.77
2018-09-18T15:30:00.015Z,13.15
2018-09-18T15:32:29.032Z,11.48
2018-09-18T15:34:57.400Z,13.48
2018-09-18T15:37:25.654Z,17.95
2018-09-18T15:39:53.943Z,14.80
2018-09-18T15:42:22.161Z,13.90
2018-09-18T15:44:50.441Z,12.65
2018-09-18T15:47:18.722Z,12.43
2018-09-18T15:49:47.041Z,16.00
2018-09-18T15:52:15.267Z,17.02
2018-09-18T15:54:43.895Z,17.30
2018-09-18T15:57:12.246Z,18.75
2018-09-18T15:59:40.680Z,18.35
2018-09-18T16:02:09.658Z,17.98
2018-09-18T16:04:38.996Z,18.17
2018-09-18T16:07:07.244Z,22.80
2018-09-18T16:09:35.522Z,15.98
2018-09-18T16:12:03.773Z,21.30
2018-09-18T16:14:32.768Z,24.30
2018-09-18T16:17:01.994Z,17.17
2018-09-18T16:19:30.272Z,13.80
2018-09-18T16:21:58.502Z,17.07
2018-09-18T16:24:26.990Z,18.52
2018-09-18T16:26:55.254Z,23.77
2018-09-18T16:29:23.718Z,23.35
2018-09-18T16:31:52.339Z,20.23
2018-09-18T16:34:20.862Z,21.48
2018-09-18T16:36:49.438Z,20.02
2018-09-18T16:39:19.837Z,28.90
2018-09-18T16:41:48.182Z,24.67
2018-09-18T16:44:16.548Z,23.87
2018-09-18T16:46:45.835Z,25.52
2018-09-18T16:49:14.032Z,21.30
2018-09-18T16:51:42.281Z,18.95
2018-09-18T16:54:10.854Z,23.65
2018-09-18T16:56:39.062Z,18.92
2018-09-18T16:59:07.399Z,15.18
2018-09-18T17:01:36.211Z,21.90
2018-09-18T17:04:07.220Z,22.82
2018-09-18T17:06:35.598Z,19.10
2018-09-18T17:09:05.922Z,17.52
2018-09-18T17:11:34.208Z,22.22
2018-09-18T17:14:02.447Z,23.60
2018-09-18T17:16:31.496Z,21.05
2018-09-18T17:18:59.723Z,17.62
2018-09-18T17:21:27.987Z,15.35
2018-09-18T17:23:56.403Z,27.67
2018-09-18T17:26:24.724Z,13.60
2018-09-18T17:28:53.438Z,17.57
2018-09-18T17:31:21.954Z,13.32
2018-09-18T17:33:50.263Z,13.00
2018-09-18T17:36:18.551Z,14.83
2018-09-18T17:38:48.367Z,15.32
2018-09-18T17:41:16.625Z,19.27
2018-09-18T17:43:45.054Z,18.32
2018-09-18T17:46:13.475Z,27.37
2018-09-18T17:48:41.881Z,22.45
2018-09-18T17:51:10.075Z,19.57
2018-09-18T17:53:38.755Z,18.67
2018-09-18T17:56:06.964Z,27.15
2018-09-18T17:58:35.415Z,24.57
2018-09-18T18:01:04.259Z,24.75
2018-09-18T18:03:32.557Z,22.50
2018-09-18T18:06:02.832Z,24.43
2018-09-18T18:08:31.283Z,27.55
2018-09-18T18:10:59.612Z,21.42
2018-09-18T18:13:28.199Z,23.18
2018-09-18T18:15:56.470Z,22.58
2018-09-18T18:18:24.982Z,21.05
2018-09-18T18:20:55.157Z,19.05
2018-09-18T18:23:23.482Z,22.25
2018-09-18T18:25:51.749Z,20.88
2018-09-18T18:28:20.411Z,14.90
2018-09-18T18:30:48.688Z,21.48
2018-09-18T18:33:17.017Z,15.28
2018-09-18T18:35:45.481Z,14.85
2018-09-18T18:38:13.751Z,20.57
2018-09-18T18:40:42.169Z,18.77
2018-09-18T18:43:10.473Z,19.50
2018-09-18T18:45:38.765Z,14.95
2018-09-18T18:48:07.370Z,12.13
2018-09-18T18:50:35.724Z,17.77
2018-09-18T18:53:03.987Z,18.48
2018-09-18T18:55:32.397Z,16.35
2018-09-18T18:58:01.574Z,17.92
2018-09-18T19:00:29.887Z,16.27
2018-09-18T19:02:58.200Z,15.32
2018-09-18T19:05:26.549Z,14.07
2018-09-18T19:07:56.258Z,11.80
2018-09-18T19:10:24.665Z,15.68
2018-09-18T19:12:53.103Z,12.93
2018-09-18T19:15:21.387Z,12.55
2018-09-18T19:17:49.659Z,10.35
2018-09-18T19:20:18.739Z,9.90
2018-09-18T19:22:47.161Z,14.93
2018-09-18T19:25:15.449Z,12.25
2018-09-18T19:27:43.868Z,12.82
2018-09-18T19:30:12.240Z,14.95
2018-09-18T19:32:40.777Z,12.85
2018-09-18T19:35:09.321Z,11.90
2018-09-18T19:37:37.626Z,13.43
2018-09-18T19:40:06.185Z,8.73
2018-09-18T19:42:35.321Z,9.93
2018-09-18T19:45:03.797Z,10.35
2018-09-18T19:47:32.088Z,13.28
2018-09-18T19:50:00.619Z,11.63
2018-09-18T19:52:28.915Z,11.97
2018-09-18T19:54:57.182Z,12.80
2018-09-18T19:57:25.871Z,11.10
2018-09-18T19:59:54.179Z,9.75
2018-09-18T20:02:22.466Z,11.80
2018-09-18T20:04:53.043Z,8.00
2018-09-18T20:07:21.628Z,10.65
2018-09-18T20:09:50.688Z,13.13
2018-09-18T20:12:19.104Z,12.95
2018-09-18T20:14:47.409Z,13.48
2018-09-18T20:17:15.638Z,11.68
2018-09-18T20:19:44.578Z,8.28
2018-09-18T20:22:12.911Z,8.90
2018-09-18T20:24:41.178Z,11.93
2018-09-18T20:27:10.604Z,17.00
2018-09-18T20:29:38.952Z,12.70
2018-09-18T20:32:07.266Z,12.45
2018-09-18T20:34:36.057Z,10.85
2018-09-18T20:37:04.328Z,10.78
2018-09-18T20:39:32.742Z,10.15
2018-09-18T20:42:02.136Z,9.65
2018-09-18T20:44:30.382Z,7.55
2018-09-18T20:46:58.910Z,7.55
2018-09-18T20:49:27.663Z,11.38
2018-09-18T20:51:55.901Z,10.98
2018-09-18T20:54:24.150Z,9.50
2018-09-18T20:56:52.688Z,6.55
2018-09-18T20:59:20.995Z,6.97
2018-09-18T21:01:49.316Z,6.97
2018-09-18T21:04:19.047Z,7.37
2018-09-18T21:06:47.302Z,5.90
2018-09-18T21:09:15.548Z,6.92
2018-09-18T21:11:45.518Z,8.23
2018-09-18T21:14:13.763Z,7.85
2018-09-18T21:16:42.013Z,8.85
2018-09-18T21:19:11.068Z,7.92
2018-09-18T21:21:39.392Z,8.85
2018-09-18T21:24:07.631Z,8.15
2018-09-18T21:26:36.865Z,11.08
2018-09-18T21:29:05.336Z,8.93
2018-09-18T21:31:33.606Z,7.22
2018-09-18T21:34:02.591Z,10.30
2018-09-18T21:36:30.829Z,7.58
2018-09-18T21:38:59.112Z,10.05
2018-09-18T21:41:27.525Z,6.67
2018-09-18T21:43:55.748Z,8.70
2018-09-18T21:46:24.122Z,9.23
2018-09-18T21:48:53.630Z,6.20
2018-09-18T21:51:21.852Z,9.50
2018-09-18T21:53:50.158Z,8.28
2018-09-18T21:56:18.754Z,7.58
2018-09-18T21:58:46.974Z,7.87
2018-09-18T22:01:15.298Z,7.33
2018-09-18T22:03:43.754Z,5.65
2018-09-18T22:06:12.059Z,4.75
2018-09-18T22:08:40.283Z,7.15
2018-09-18T22:11:09.482Z,6.17
2018-09-18T22:13:40.001Z,5.55
2018-09-18T22:16:08.231Z,5.85
2018-09-18T22:18:36.494Z,5.30
2018-09-18T22:21:04.709Z,7.37
2018-09-18T22:23:33.527Z,5.83
2018-09-18T22:26:01.761Z,8.40
2018-09-18T22:28:30.140Z,5.42
2018-09-18T22:30:59.702Z,6.35
2018-09-18T22:33:28.002Z,4.80
2018-09-18T22:35:56.233Z,5.97
2018-09-18T22:38:24.677Z,4.45
2018-09-18T22:40:52.906Z,10.68
2018-09-18T22:43:21.201Z,7.58
2018-09-18T22:45:49.794Z,6.67
2018-09-18T22:48:18.206Z,5.85
2018-09-18T22:50:47.434Z,5.08
2018-09-18T22:53:16.543Z,6.67
2018-09-18T22:55:44.889Z,5.05
2018-09-18T22:58:13.113Z,4.70
2018-09-18T23:00:41.354Z,4.83
2018-09-18T23:03:10.046Z,5.15
2018-09-18T23:05:39.790Z,4.53
2018-09-18T23:08:08.023Z,6.40
2018-09-18T23:10:36.242Z,4.97
2018-09-18T23:13:04.628Z,6.50
2018-09-18T23:15:32.865Z,4.45
2018-09-18T23:18:01.074Z,5.28
2018-09-18T23:20:30.657Z,6.30
2018-09-18T23:22:58.887Z,4.90
2018-09-18T23:25:27.174Z,4.75
2018-09-18T23:27:55.795Z,4.28
2018-09-18T23:30:24.020Z,4.60
2018-09-18T23:32:52.237Z,5.10
2018-09-18T23:35:21.133Z,5.65
2018-09-18T23:37:49.380Z,5.28
2018-09-18T23:40:17.697Z,5.65
2018-09-18T23:42:46.706Z,5.37
2018-09-18T23:45:15.021Z,4.78
2018-09-18T23:47:43.329Z,4.87
2018-09-18T23:50:11.617Z,4.70
2018-09-18T23:52:40.043Z,5.10
2018-09-18T23:55:08.545Z,5.15
2018-09-18T23:57:37.267Z,5.45
